Pagina principale
METAR-TAF:

METAR-TAF

Aeroporti :

Aeroporto di Tirana

Tirana, Albania

latitudine: 41-20N, longitudine: 019-47E, altezza: 89 m

Osservazione

Il bollettino è stato emesso 37 minuti fa, alle 19:50 UTC
Vento 2 kt da sud-est
Temperature 19°C
Umidità 88%
Pressione 1017 hPa
Visibilità 10 km o più
nessuna nube inferiore a 1500 m e nessun cumulonembo

METAR: LATI 161950Z 14002KT CAVOK 19/17 Q1017 NOSIG

Ora: 22:27 (20:27 UTC)

Previsione

Il bollettino è stato emesso 3 ore e 27 minuti fa, alle 17:00 UTC
Previsione valida dal 16 alle 18 UTC al 17 alle 18 UTC
Vento 2 kt da direzioni variabili
Visibilità 10 km o più
nessuna nube inferiore a 1500 m e nessun cumulonembo
Probabilità 40%
dal 17 alle 01 UTC al 17 alle 05 UTC
Visibilità: 3000 m
foschia
Temporaneamente
dal 17 alle 11 UTC al 17 alle 17 UTC
Vento 10 kt da ovest/nord-ovest

TAF: LATI 161700Z 1618/1718 VRB02KT CAVOK PROB40 1701/1705 3000 BR TEMPO 1711/1717 30010KT

Osservazioni e previsioni meteorologiche di più di 4000 aeroporti (messaggi METAR e TAF).

Le stazioni disponibili sono rappresentate dai dischi gialli e rossi sulla carta.

Puntare il mouse per vedere il nome della stazione.

Clicca sopra per visualizzare le osservazioni e previsioni meteorologiche.

Per cambiare la mappa : fare clic sui pulsanti verdi con una croce nera per ingrandire, il pulsante verde con un trattino per diminuire, o sulla freccia verde per le mappe adiacenti.


METAR-TAF: